DAAY

Mecheria Airport

Mecheria, Algeria
METAR DAAY 210700Z 01010KT 8000 FEW026 13/11 Q1016
Observed Flight Rules
May-21 @ 07:00 UTC (11 minutes ago) Marginal Visual Flight Rules
Wind Visibility Clouds
10° at 10 knots 7,998 meters
  • Few at 2,600' AGL
Temperatures Readings
Current 13°C / 55°F
Dewpoint 11°C / 52°F
Humidity 88%
Altimeter 30" Hg
Pressure 1016 hPa
Elevation 1149
METAR DAAY 210700Z 01010KT 8000 FEW026 13/11 Q1016
Observed Flight Rules
May-21 @ 07:00 UTC
(11 minutes ago)
MVFR
Wind Visibility
10° at 10 knots 7,998 meters
Clouds
  • Few at 2,600' AGL
Temperature Dewpoint
13°C / 55°F 11°C / 52°F
Humidity Altimeter Pressure
88% 30" Hg 1016 hPa